Cape Lookout, NC current weather conditions

sailwx.info

Wind from 200 at 6 knots gusting 8

Air temperature 22.2° C

Last reported at 2020-Oct-01 16:00 UTC.
Time now 2020-Oct-01 17:01 UTC

Location: N 34°37' W 076°31'.
View on Google Maps.

See reports from other nearby stations

  
Tides and Currents Weather Stations Pressure Air Temp Water Temp Dewpoint Dewpoint Depression Visibility Wind Speed Wind Dir Waves Ship Positions
date/time (UTC)wind fromknots sea level pressurealtimeterstation pressurevisibilityair tempwater tempwave heightnotes
2020-Oct-01 16:00 200 6 gusting 8 22.2
2020-Oct-01 15:00 270 5 gusting 6 22.5
2020-Oct-01 14:00 290 4 gusting 5 22.4
2020-Oct-01 13:00 290 2 gusting 4 21.8
2020-Oct-01 12:00 310 4 gusting 5 20.7
2020-Oct-01 11:00 310 6 gusting 7 20.3
2020-Oct-01 10:00 320 7 gusting 8 20.2
2020-Oct-01 09:00 310 4 gusting 5 19.9
2020-Oct-01 08:00 250 5 gusting 6 19.8
2020-Oct-01 07:00 290 0 gusting 1 20.0
2020-Oct-01 06:00 300 1 gusting 2 19.7
2020-Oct-01 05:00 360 4 gusting 4 20.8
2020-Oct-01 04:00 020 1 gusting 1 21.1
2020-Oct-01 03:00 020 1 gusting 1 21.2
2020-Oct-01 02:00 360 4 gusting 4 21.3
2020-Oct-01 01:00 280 2 gusting 4 20.9
2020-Oct-01 00:00 240 4 gusting 5 20.8
2020-Sep-30 23:00 230 5 gusting 6 20.5
2020-Sep-30 22:00 220 5 gusting 6 21.3
2020-Sep-30 21:00 240 5 gusting 6 21.7
2020-Sep-30 20:00 280 7 gusting 8 21.6
2020-Sep-30 19:00 270 8 gusting 11 21.6
2020-Sep-30 18:00 270 7 gusting 11 21.3
2020-Sep-30 17:00 290 6 gusting 7 21.4
2020-Sep-30 16:00 320 8 gusting 11 20.5
2020-Sep-30 15:00 310 8 gusting 11 19.6
2020-Sep-30 14:00 310 9 gusting 13 18.6
2020-Sep-30 13:00 310 13 gusting 18 18.5
2020-Sep-30 12:00 310 13 gusting 17 18.7
2020-Sep-30 11:00 300 18 gusting 20 19.4
2020-Sep-30 10:00 280 25 gusting 27 20.2
2020-Sep-30 09:00 260 19 gusting 22 21.7
2020-Sep-30 08:00 240 8 gusting 14 21.9
2020-Sep-30 07:00 210 6 gusting 6 21.4
2020-Sep-30 06:00 240 2 gusting 4 20.8
2020-Sep-30 05:00 280 6 gusting 7 20.8
2020-Sep-30 04:00 290 18 gusting 21 22.3
2020-Sep-30 03:00 190 27 gusting 31 25.2
2020-Sep-30 02:00 180 29 gusting 34 25.3
2020-Sep-30 01:00 180 21 gusting 25 25.1
2020-Sep-30 00:00 180 20 gusting 24 25.0
2020-Sep-29 23:00 180 18 gusting 20 24.5
2020-Sep-29 22:00 180 15 gusting 18 24.8
2020-Sep-29 21:00 180 15 gusting 20 24.7
2020-Sep-29 20:00 180 13 gusting 14 24.6
2020-Sep-29 19:00 200 13 gusting 15 24.0
2020-Sep-29 18:00 180 18 gusting 19 24.4
2020-Sep-29 17:00 170 12 gusting 13 24.1